createdAt,value
2023-03-14T00:01:30.606Z,98755.53
2023-03-14T00:03:58.438Z,98741.81
2023-03-14T00:06:26.337Z,98734.44
2023-03-14T00:08:55.694Z,98730.63
2023-03-14T00:11:23.907Z,98709.72
2023-03-14T00:13:52.115Z,98704.25
2023-03-14T00:16:21.290Z,98712.47
2023-03-14T00:18:49.495Z,98721.56
2023-03-14T00:21:17.384Z,98728.94
2023-03-14T00:23:45.842Z,98735.28
2023-03-14T00:26:17.270Z,98753.44
2023-03-14T00:28:45.791Z,98759.13
2023-03-14T00:31:15.197Z,98761.88
2023-03-14T00:33:43.512Z,98767.34
2023-03-14T00:36:14.167Z,98787.41
2023-03-14T00:38:43.430Z,98781.91
2023-03-14T00:41:13.818Z,98805.75
2023-03-14T00:43:44.817Z,98827.72
2023-03-14T00:46:12.968Z,98808.69
2023-03-14T00:48:41.065Z,98813.53
2023-03-14T00:51:10.673Z,98806.75
2023-03-14T00:53:39.776Z,98819.75
2023-03-14T00:56:11.009Z,98812.28
2023-03-14T00:58:39.347Z,98812.81
2023-03-14T01:01:10.712Z,98808.75
2023-03-14T01:03:39.184Z,98803.59
2023-03-14T01:06:15.100Z,98787.69
2023-03-14T01:08:44.993Z,98780.84
2023-03-14T01:11:16.288Z,98784.16
2023-03-14T01:13:44.271Z,98773.97
2023-03-14T01:16:15.004Z,98785.31
2023-03-14T01:18:45.730Z,98784.19
2023-03-14T01:21:16.255Z,98786.88
2023-03-14T01:23:45.111Z,98783.16
2023-03-14T01:26:14.547Z,98786.44
2023-03-14T01:28:43.038Z,98782.59
2023-03-14T01:31:16.318Z,98773.03
2023-03-14T01:33:44.396Z,98767.31
2023-03-14T01:36:13.518Z,98765.16
2023-03-14T01:38:42.891Z,98757.47
2023-03-14T01:41:16.513Z,98753.22
2023-03-14T01:43:45.626Z,98756.72
2023-03-14T01:46:34.880Z,98766.84
2023-03-14T01:49:12.804Z,98766.16
2023-03-14T01:51:48.097Z,98765.53
2023-03-14T01:54:21.240Z,98766.75
2023-03-14T01:56:54.563Z,98754.47
2023-03-14T01:59:23.618Z,98744.34
2023-03-14T02:01:53.952Z,98748.16
2023-03-14T02:04:22.447Z,98750.41
2023-03-14T02:06:59.502Z,98755.72
2023-03-14T02:09:32.739Z,98746.81
2023-03-14T02:12:01.659Z,98737.94
2023-03-14T02:15:02.045Z,98751.00
2023-03-14T02:17:46.145Z,98755.41
2023-03-14T02:20:34.857Z,98752.03
2023-03-14T02:23:03.446Z,98742.97
2023-03-14T02:25:42.126Z,98758.13
2023-03-14T02:28:12.555Z,98748.44
2023-03-14T02:30:42.040Z,98755.78
2023-03-14T02:33:12.168Z,98761.28
2023-03-14T02:35:44.186Z,98757.69
2023-03-14T02:38:19.267Z,98752.56
2023-03-14T02:40:48.076Z,98755.31
2023-03-14T02:43:17.618Z,98758.03
2023-03-14T02:45:52.508Z,98751.72
2023-03-14T02:48:26.557Z,98744.75
2023-03-14T02:50:57.502Z,98742.66
2023-03-14T02:53:28.539Z,98736.34
2023-03-14T02:55:59.404Z,98741.16
2023-03-14T02:58:31.056Z,98738.03
2023-03-14T03:01:08.011Z,98733.81
2023-03-14T03:03:36.098Z,98734.84
2023-03-14T03:06:04.668Z,98729.19
2023-03-14T03:08:33.855Z,98720.13
2023-03-14T03:11:02.407Z,98715.69
2023-03-14T03:13:33.990Z,98720.13
2023-03-14T03:16:03.931Z,98722.00
2023-03-14T03:18:31.690Z,98718.44
2023-03-14T03:21:02.879Z,98721.78
2023-03-14T03:23:30.997Z,98720.31
2023-03-14T03:25:59.715Z,98712.09
2023-03-14T03:28:27.986Z,98716.53
2023-03-14T03:30:57.852Z,98717.56
2023-03-14T03:33:25.821Z,98723.41
2023-03-14T03:35:55.394Z,98728.69
2023-03-14T03:38:29.908Z,98724.44
2023-03-14T03:40:59.344Z,98730.09
2023-03-14T03:43:29.098Z,98720.22
2023-03-14T03:45:58.408Z,98717.47
2023-03-14T03:48:26.394Z,98708.78
2023-03-14T03:50:54.144Z,98714.44
2023-03-14T03:53:33.142Z,98712.09
2023-03-14T03:56:03.439Z,98694.53
2023-03-14T03:58:31.340Z,98700.00
2023-03-14T04:01:00.605Z,98687.34
2023-03-14T04:03:28.845Z,98677.00
2023-03-14T04:06:01.800Z,98679.91
2023-03-14T04:08:30.300Z,98675.19
2023-03-14T04:10:59.425Z,98668.16
2023-03-14T04:13:46.131Z,98672.97
2023-03-14T04:16:19.422Z,98670.22
2023-03-14T04:18:47.672Z,98659.69
2023-03-14T04:21:16.321Z,98660.91
2023-03-14T04:23:50.316Z,98657.31
2023-03-14T04:26:19.639Z,98656.66
2023-03-14T04:28:47.847Z,98648.66
2023-03-14T04:31:19.625Z,98652.22
2023-03-14T04:33:47.852Z,98645.44
2023-03-14T04:36:19.195Z,98644.75
2023-03-14T04:38:47.120Z,98642.69
2023-03-14T04:41:18.857Z,98639.28
2023-03-14T04:43:46.794Z,98634.69
2023-03-14T04:46:15.143Z,98632.13
2023-03-14T04:48:44.949Z,98631.09
2023-03-14T04:51:13.059Z,98629.59
2023-03-14T04:53:41.111Z,98628.75
2023-03-14T04:56:13.935Z,98627.06
2023-03-14T04:58:44.997Z,98623.47
2023-03-14T05:01:15.311Z,98623.47
2023-03-14T05:04:04.300Z,98618.00
2023-03-14T05:06:52.421Z,98617.34
2023-03-14T05:09:29.986Z,98605.34
2023-03-14T05:12:03.921Z,98611.69
2023-03-14T05:14:52.971Z,98602.81
2023-03-14T05:17:39.493Z,98593.75
2023-03-14T05:20:34.914Z,98590.84
2023-03-14T05:23:20.752Z,98596.50
2023-03-14T05:26:12.056Z,98593.09
2023-03-14T05:28:54.932Z,98600.50
2023-03-14T05:31:33.660Z,98586.31
2023-03-14T05:34:30.722Z,98584.25
2023-03-14T05:37:15.006Z,98577.97
2023-03-14T05:39:59.647Z,98579.31
2023-03-14T05:42:52.043Z,98574.72
2023-03-14T05:45:35.700Z,98587.34
2023-03-14T05:48:24.018Z,98583.59
2023-03-14T05:51:12.097Z,98583.59
2023-03-14T05:54:01.674Z,98589.03
2023-03-14T05:56:44.273Z,98581.03
2023-03-14T05:59:18.166Z,98578.28
2023-03-14T06:02:09.468Z,98576.59
2023-03-14T06:04:48.606Z,98579.31
2023-03-14T06:07:17.220Z,98577.44
2023-03-14T06:09:47.198Z,98577.25
2023-03-14T06:12:18.272Z,98580.34
2023-03-14T06:14:47.534Z,98590.25
2023-03-14T06:17:16.020Z,98574.72
2023-03-14T06:19:51.596Z,98571.97
2023-03-14T06:22:24.169Z,98577.09
2023-03-14T06:24:59.672Z,98584.44
2023-03-14T06:27:28.523Z,98581.03
2023-03-14T06:29:58.127Z,98581.03
2023-03-14T06:32:32.199Z,98592.63
2023-03-14T06:35:04.366Z,98589.22
2023-03-14T06:37:37.039Z,98589.22
2023-03-14T06:40:08.245Z,98583.41
2023-03-14T06:42:51.746Z,98588.19
2023-03-14T06:45:21.491Z,98590.94
2023-03-14T06:47:49.545Z,98592.63
2023-03-14T06:50:19.999Z,98592.63
2023-03-14T06:52:50.259Z,98597.06
2023-03-14T06:55:23.964Z,98590.75
2023-03-14T06:57:52.421Z,98599.81
2023-03-14T07:00:21.335Z,98597.69
2023-03-14T07:02:50.089Z,98606.75
2023-03-14T07:05:29.112Z,98605.91
2023-03-14T07:07:57.511Z,98603.00
2023-03-14T07:10:26.912Z,98600.06
2023-03-14T07:12:54.966Z,98585.09
2023-03-14T07:15:25.399Z,98605.53
2023-03-14T07:17:58.212Z,98603.84
2023-03-14T07:20:27.087Z,98602.63
2023-03-14T07:22:55.264Z,98608.28
2023-03-14T07:25:35.554Z,98615.25
2023-03-14T07:28:03.492Z,98615.44
2023-03-14T07:30:31.722Z,98619.03
2023-03-14T07:33:01.457Z,98622.78
2023-03-14T07:35:29.916Z,98618.19
2023-03-14T07:37:57.759Z,98619.88
2023-03-14T07:40:32.808Z,98620.72
2023-03-14T07:43:02.270Z,98627.91
2023-03-14T07:45:43.162Z,98628.75
2023-03-14T07:48:11.206Z,98622.22
2023-03-14T07:50:39.010Z,98627.50
2023-03-14T07:53:06.845Z,98633.81
2023-03-14T07:55:34.778Z,98635.53
2023-03-14T07:58:04.032Z,98638.94
2023-03-14T08:00:31.861Z,98638.94
2023-03-14T08:02:59.722Z,98636.19
2023-03-14T08:05:28.570Z,98645.25
2023-03-14T08:07:56.695Z,98645.06
2023-03-14T08:10:24.444Z,98641.28
2023-03-14T08:12:52.635Z,98640.06
2023-03-14T08:15:21.855Z,98634.59
2023-03-14T08:17:52.067Z,98638.84
2023-03-14T08:20:22.917Z,98651.31
2023-03-14T08:22:50.956Z,98642.88
2023-03-14T08:25:19.157Z,98640.81
2023-03-14T08:27:47.228Z,98648.84
2023-03-14T08:30:17.618Z,98648.50
2023-03-14T08:32:46.970Z,98657.19
2023-03-14T08:35:14.947Z,98657.19
2023-03-14T08:37:42.990Z,98658.69
2023-03-14T08:40:12.717Z,98651.16
2023-03-14T08:42:41.469Z,98652.00
2023-03-14T08:45:10.776Z,98654.53
2023-03-14T08:47:38.685Z,98658.13
2023-03-14T08:50:11.072Z,98656.91
2023-03-14T08:52:41.295Z,98659.63
2023-03-14T08:55:10.692Z,98667.66
2023-03-14T08:57:38.519Z,98673.97
2023-03-14T09:00:11.536Z,98670.41
2023-03-14T09:02:39.494Z,98679.28
2023-03-14T09:05:11.044Z,98688.13
2023-03-14T09:07:39.433Z,98696.72
2023-03-14T09:10:08.653Z,98708.50
2023-03-14T09:12:38.675Z,98703.22
2023-03-14T09:15:07.449Z,98707.00
2023-03-14T09:17:35.222Z,98706.13
2023-03-14T09:20:06.768Z,98724.44
2023-03-14T09:22:36.660Z,98734.72
2023-03-14T09:25:04.793Z,98772.72
2023-03-14T09:27:32.629Z,98780.44
2023-03-14T09:30:00.644Z,98793.66
2023-03-14T09:32:28.511Z,98813.31
2023-03-14T09:34:56.363Z,98814.03
2023-03-14T09:37:24.189Z,98823.84
2023-03-14T09:39:53.397Z,98838.91
2023-03-14T09:42:25.222Z,98864.22
2023-03-14T09:44:58.250Z,98873.16
2023-03-14T09:47:27.696Z,98877.44
2023-03-14T09:49:55.480Z,98889.97
2023-03-14T09:52:26.857Z,98900.38
2023-03-14T09:54:59.461Z,98909.81
2023-03-14T09:57:29.065Z,98913.28
2023-03-14T09:59:59.997Z,98930.69
2023-03-14T10:02:35.440Z,98937.34
2023-03-14T10:05:07.043Z,98938.94
2023-03-14T10:07:35.421Z,98949.19
2023-03-14T10:10:13.736Z,98959.25
2023-03-14T10:12:42.963Z,98969.19
2023-03-14T10:15:14.818Z,98966.63
2023-03-14T10:17:44.669Z,98991.38
2023-03-14T10:20:33.503Z,98995.97
2023-03-14T10:23:02.640Z,99005.41
2023-03-14T10:25:33.852Z,99017.34
2023-03-14T10:28:02.425Z,99020.41
2023-03-14T10:30:36.965Z,99038.53
2023-03-14T10:33:10.879Z,99048.59
2023-03-14T10:35:38.874Z,99066.34
2023-03-14T10:38:06.801Z,99076.59
2023-03-14T10:40:40.974Z,99088.38
2023-03-14T10:43:16.482Z,99087.00
2023-03-14T10:45:46.734Z,99078.31
2023-03-14T10:48:22.158Z,99094.69
2023-03-14T10:50:51.798Z,99111.41
2023-03-14T10:53:20.534Z,99121.81
2023-03-14T10:55:50.282Z,99120.78
2023-03-14T10:58:26.995Z,99150.84
2023-03-14T11:01:06.956Z,99160.91
2023-03-14T11:03:39.190Z,99170.31
2023-03-14T11:06:16.296Z,99181.41
2023-03-14T11:08:51.126Z,99191.28
2023-03-14T11:11:24.400Z,99226.97
2023-03-14T11:14:13.078Z,99227.13
2023-03-14T11:16:50.352Z,99231.03
2023-03-14T11:19:31.895Z,99240.44
2023-03-14T11:22:07.447Z,99241.72
2023-03-14T11:24:57.195Z,99251.78
2023-03-14T11:27:33.535Z,99263.94
2023-03-14T11:30:08.675Z,99280.47
2023-03-14T11:32:44.760Z,99287.09
2023-03-14T11:35:20.032Z,99297.16
2023-03-14T11:37:52.024Z,99310.28
2023-03-14T11:40:22.168Z,99314.38
2023-03-14T11:42:56.963Z,99318.81
2023-03-14T11:45:31.329Z,99319.97
2023-03-14T11:48:12.714Z,99328.31
2023-03-14T11:50:43.145Z,99338.72
2023-03-14T11:53:16.827Z,99349.50
2023-03-14T11:55:47.013Z,99355.09
2023-03-14T11:58:20.877Z,99367.91
2023-03-14T12:00:50.776Z,99371.63
2023-03-14T12:03:28.729Z,99363.44
2023-03-14T12:06:04.672Z,99384.59
2023-03-14T12:08:46.899Z,99394.47
2023-03-14T12:11:21.227Z,99405.91
2023-03-14T12:13:53.172Z,99415.81
2023-03-14T12:16:48.856Z,99438.25
2023-03-14T12:19:39.604Z,99439.09
2023-03-14T12:22:26.832Z,99447.28
2023-03-14T12:24:59.402Z,99458.53
2023-03-14T12:27:47.589Z,99463.28
2023-03-14T12:30:35.887Z,99479.66
2023-03-14T12:33:28.745Z,99488.72
2023-03-14T12:36:01.685Z,99495.34
2023-03-14T12:39:05.359Z,99498.78
2023-03-14T12:41:40.496Z,99504.22
2023-03-14T12:44:47.342Z,99514.81
2023-03-14T12:48:03.283Z,99519.75
2023-03-14T12:50:38.378Z,99529.88
2023-03-14T12:53:44.860Z,99536.91
2023-03-14T12:56:30.279Z,99556.53
2023-03-14T12:59:15.912Z,99564.56
2023-03-14T13:01:50.436Z,99586.09
2023-03-14T13:04:23.845Z,99588.81
2023-03-14T13:07:00.934Z,99607.44
2023-03-14T13:09:53.762Z,99626.41
2023-03-14T13:12:33.200Z,99622.25
2023-03-14T13:15:03.666Z,99634.22
2023-03-14T13:17:37.146Z,99642.41
2023-03-14T13:20:15.488Z,99648.88
2023-03-14T13:22:53.203Z,99650.03
2023-03-14T13:25:23.064Z,99657.50
2023-03-14T13:27:56.556Z,99665.69
2023-03-14T13:30:27.911Z,99675.75
2023-03-14T13:32:57.342Z,99671.50
2023-03-14T13:35:27.406Z,99677.81
2023-03-14T13:38:12.224Z,99686.00
2023-03-14T13:40:41.023Z,99686.28
2023-03-14T13:43:17.818Z,99690.41
2023-03-14T13:45:48.415Z,99694.00
2023-03-14T13:48:19.359Z,99714.69
2023-03-14T13:50:56.976Z,99719.66
2023-03-14T13:53:26.994Z,99731.44
2023-03-14T13:55:55.290Z,99730.59
2023-03-14T13:58:29.396Z,99742.38
2023-03-14T14:01:01.760Z,99731.78
2023-03-14T14:03:32.269Z,99741.41
2023-03-14T14:06:00.572Z,99745.00
2023-03-14T14:08:29.875Z,99742.44
2023-03-14T14:11:02.633Z,99745.31
2023-03-14T14:13:34.094Z,99757.41
2023-03-14T14:16:05.035Z,99767.16
2023-03-14T14:18:36.246Z,99774.47
2023-03-14T14:21:05.130Z,99765.44
2023-03-14T14:23:34.832Z,99775.34
2023-03-14T14:26:02.779Z,99778.06
2023-03-14T14:28:32.737Z,99780.66
2023-03-14T14:31:19.105Z,99776.06
2023-03-14T14:33:48.522Z,99790.72
2023-03-14T14:36:21.344Z,99792.44
2023-03-14T14:39:00.554Z,99797.03
2023-03-14T14:41:33.610Z,99805.06
2023-03-14T14:44:02.798Z,99822.28
2023-03-14T14:46:33.198Z,99828.59
2023-03-14T14:49:06.744Z,99832.91
2023-03-14T14:51:40.660Z,99839.38
2023-03-14T14:54:16.252Z,99848.28
2023-03-14T14:56:50.253Z,99854.75
2023-03-14T14:59:24.635Z,99863.81
2023-03-14T15:01:57.605Z,99865.66
2023-03-14T15:04:26.236Z,99884.06
2023-03-14T15:06:54.819Z,99890.53
2023-03-14T15:09:24.186Z,99906.91
2023-03-14T15:11:52.120Z,99906.22
2023-03-14T15:14:19.888Z,99915.41
2023-03-14T15:16:47.739Z,99920.88
2023-03-14T15:19:24.826Z,99926.31
2023-03-14T15:21:53.832Z,99929.34
2023-03-14T15:24:21.662Z,99934.78
2023-03-14T15:26:50.923Z,99949.16
2023-03-14T15:29:18.989Z,99946.72
2023-03-14T15:31:47.008Z,99951.16
2023-03-14T15:34:15.895Z,99958.63
2023-03-14T15:36:44.108Z,99968.56
2023-03-14T15:39:13.373Z,99980.31
2023-03-14T15:41:41.209Z,99976.88
2023-03-14T15:44:10.349Z,99988.53
2023-03-14T15:46:38.717Z,99993.25
2023-03-14T15:49:06.572Z,99992.38
2023-03-14T15:51:35.101Z,99996.16
2023-03-14T15:54:03.551Z,100009.81
2023-03-14T15:56:32.257Z,100010.81
2023-03-14T15:59:00.366Z,100010.06
2023-03-14T16:01:29.933Z,100024.59
2023-03-14T16:03:57.838Z,100026.72
2023-03-14T16:06:25.739Z,100032.31
2023-03-14T16:08:53.763Z,100035.22
2023-03-14T16:11:22.837Z,100047.28
2023-03-14T16:13:51.192Z,100050.13
2023-03-14T16:16:19.169Z,100053.88
2023-03-14T16:18:48.361Z,100068.50
2023-03-14T16:21:18.321Z,100080.28
2023-03-14T16:23:46.885Z,100087.06
2023-03-14T16:26:16.754Z,100094.38
2023-03-14T16:28:45.432Z,100105.56
2023-03-14T16:31:16.299Z,100115.78
2023-03-14T16:33:44.925Z,100123.97
2023-03-14T16:36:15.691Z,100124.78
2023-03-14T16:38:45.584Z,100132.41
2023-03-14T16:41:14.989Z,100138.00
2023-03-14T16:43:43.511Z,100146.31
2023-03-14T16:46:15.230Z,100158.22
2023-03-14T16:48:43.325Z,100161.25
2023-03-14T16:51:11.243Z,100160.38
2023-03-14T16:53:40.783Z,100164.97
2023-03-14T16:56:09.563Z,100167.84
2023-03-14T16:58:38.336Z,100169.84
2023-03-14T17:01:10.536Z,100179.03
2023-03-14T17:03:39.085Z,100183.94
2023-03-14T17:06:07.707Z,100185.16
2023-03-14T17:08:35.794Z,100202.25
2023-03-14T17:11:05.194Z,100207.59
2023-03-14T17:13:33.142Z,100211.44
2023-03-14T17:16:02.260Z,100226.81
2023-03-14T17:18:32.081Z,100222.47
2023-03-14T17:21:00.538Z,100234.25
2023-03-14T17:23:30.407Z,100248.75
2023-03-14T17:25:58.589Z,100246.16
2023-03-14T17:28:28.495Z,100253.50
2023-03-14T17:31:04.215Z,100258.81
2023-03-14T17:33:32.294Z,100272.72
2023-03-14T17:36:00.197Z,100288.09
2023-03-14T17:38:28.256Z,100290.94
2023-03-14T17:40:56.064Z,100299.13
2023-03-14T17:43:23.990Z,100299.25
2023-03-14T17:46:00.137Z,100310.03
2023-03-14T17:48:28.534Z,100316.88
2023-03-14T17:50:58.943Z,100311.41
2023-03-14T17:53:29.439Z,100323.59
2023-03-14T17:55:57.431Z,100341.69
2023-03-14T17:58:25.536Z,100334.78
2023-03-14T18:00:53.589Z,100346.53
2023-03-14T18:03:23.455Z,100354.72
2023-03-14T18:05:51.271Z,100363.31
2023-03-14T18:08:19.152Z,100360.59
2023-03-14T18:10:47.222Z,100376.22
2023-03-14T18:13:15.094Z,100379.94
2023-03-14T18:15:42.974Z,100389.22
2023-03-14T18:18:11.031Z,100401.00
2023-03-14T18:20:40.186Z,100407.47
2023-03-14T18:23:09.180Z,100405.13
2023-03-14T18:25:37.002Z,100415.91
2023-03-14T18:28:04.881Z,100421.47
2023-03-14T18:30:32.760Z,100417.13
2023-03-14T18:33:01.033Z,100430.91
2023-03-14T18:35:28.834Z,100436.38
2023-03-14T18:37:58.003Z,100435.50
2023-03-14T18:40:25.794Z,100463.88
2023-03-14T18:42:53.597Z,100454.06
2023-03-14T18:45:21.457Z,100459.63
2023-03-14T18:47:49.397Z,100464.38
2023-03-14T18:50:17.382Z,100470.06
2023-03-14T18:52:45.211Z,100478.34
2023-03-14T18:55:14.531Z,100474.75
2023-03-14T18:57:42.306Z,100476.03
2023-03-14T19:00:12.650Z,100486.81
2023-03-14T19:02:40.896Z,100483.34
2023-03-14T19:05:09.624Z,100490.75
2023-03-14T19:07:37.582Z,100486.31
2023-03-14T19:10:05.985Z,100495.63
2023-03-14T19:12:35.169Z,100496.44
2023-03-14T19:15:03.043Z,100503.03
2023-03-14T19:17:30.930Z,100520.38
2023-03-14T19:19:58.682Z,100525.94
2023-03-14T19:22:26.518Z,100523.22
2023-03-14T19:24:56.382Z,100532.38
2023-03-14T19:27:24.301Z,100536.25
2023-03-14T19:29:53.506Z,100532.50
2023-03-14T19:32:21.582Z,100547.38
2023-03-14T19:34:49.356Z,100550.09
2023-03-14T19:37:17.119Z,100549.34
2023-03-14T19:39:47.011Z,100557.53
2023-03-14T19:42:15.074Z,100560.38
2023-03-14T19:44:42.855Z,100568.69
2023-03-14T19:47:11.992Z,100573.13
2023-03-14T19:49:39.743Z,100580.56
2023-03-14T19:52:07.550Z,100578.84
2023-03-14T19:54:35.288Z,100582.56
2023-03-14T19:57:05.352Z,100577.97
2023-03-14T19:59:33.185Z,100583.66
2023-03-14T20:02:01.072Z,100596.28
2023-03-14T20:04:30.418Z,100599.88
2023-03-14T20:06:58.207Z,100600.09
2023-03-14T20:09:26.277Z,100605.56
2023-03-14T20:11:54.060Z,100607.56
2023-03-14T20:14:22.039Z,100613.88
2023-03-14T20:16:49.917Z,100620.44
2023-03-14T20:19:17.922Z,100619.66
2023-03-14T20:21:47.056Z,100624.25
2023-03-14T20:24:14.923Z,100633.41
2023-03-14T20:26:42.681Z,100628.22
2023-03-14T20:29:10.578Z,100626.59
2023-03-14T20:31:40.130Z,100638.34
2023-03-14T20:34:08.150Z,100633.25
2023-03-14T20:36:35.969Z,100638.69
2023-03-14T20:39:06.371Z,100640.59
2023-03-14T20:41:36.905Z,100644.53
2023-03-14T20:44:04.815Z,100649.22
2023-03-14T20:46:33.041Z,100652.91
2023-03-14T20:49:02.654Z,100659.50
2023-03-14T20:51:30.492Z,100649.69
2023-03-14T20:53:58.250Z,100653.41
2023-03-14T20:56:27.442Z,100651.66
2023-03-14T20:58:58.011Z,100654.38
2023-03-14T21:01:26.051Z,100651.28
2023-03-14T21:03:53.872Z,100651.16
2023-03-14T21:06:22.387Z,100664.88
2023-03-14T21:08:50.596Z,100664.13
2023-03-14T21:11:18.450Z,100671.56
2023-03-14T21:13:47.584Z,100665.25
2023-03-14T21:16:15.452Z,100666.25
2023-03-14T21:18:43.654Z,100662.75
2023-03-14T21:21:12.180Z,100670.94
2023-03-14T21:23:39.981Z,100674.84
2023-03-14T21:26:08.088Z,100678.59
2023-03-14T21:28:35.861Z,100683.28
2023-03-14T21:31:11.794Z,100688.72
2023-03-14T21:33:40.437Z,100685.44
2023-03-14T21:36:09.014Z,100689.03
2023-03-14T21:38:36.944Z,100692.88
2023-03-14T21:41:06.756Z,100691.16
2023-03-14T21:43:35.010Z,100698.44
2023-03-14T21:46:03.031Z,100698.56
2023-03-14T21:48:32.202Z,100692.25
2023-03-14T21:50:59.973Z,100695.22
2023-03-14T21:53:30.180Z,100697.16
2023-03-14T21:55:58.660Z,100696.41
2023-03-14T21:58:26.579Z,100699.25
2023-03-14T22:00:55.430Z,100710.22
2023-03-14T22:03:23.779Z,100708.50
2023-03-14T22:05:54.417Z,100715.94
2023-03-14T22:08:22.810Z,100710.69
2023-03-14T22:10:52.701Z,100708.97
2023-03-14T22:13:21.719Z,100713.63
2023-03-14T22:15:50.949Z,100721.06
2023-03-14T22:18:20.020Z,100723.03
2023-03-14T22:20:48.041Z,100720.75
2023-03-14T22:23:17.847Z,100721.50
2023-03-14T22:25:49.362Z,100721.63
2023-03-14T22:28:18.671Z,100720.88
2023-03-14T22:30:47.791Z,100729.03
2023-03-14T22:33:15.889Z,100726.38
2023-03-14T22:35:43.855Z,100727.38
2023-03-14T22:38:11.691Z,100723.78
2023-03-14T22:40:40.807Z,100735.53
2023-03-14T22:43:08.592Z,100735.63
2023-03-14T22:45:36.525Z,100737.38
2023-03-14T22:48:04.765Z,100743.78
2023-03-14T22:50:32.600Z,100743.78
2023-03-14T22:53:00.369Z,100748.34
2023-03-14T22:55:28.116Z,100742.19
2023-03-14T22:57:59.095Z,100741.22
2023-03-14T23:00:27.945Z,100752.19
2023-03-14T23:02:56.000Z,100746.00
2023-03-14T23:05:24.208Z,100756.97
2023-03-14T23:07:52.094Z,100750.78
2023-03-14T23:10:20.697Z,100757.31
2023-03-14T23:12:48.547Z,100764.59
2023-03-14T23:15:17.806Z,100772.88
2023-03-14T23:17:45.845Z,100758.75
2023-03-14T23:20:14.175Z,100772.34
2023-03-14T23:22:42.022Z,100776.16
2023-03-14T23:25:10.878Z,100770.81
2023-03-14T23:27:39.070Z,100768.19
2023-03-14T23:30:07.780Z,100768.44
2023-03-14T23:32:36.903Z,100768.44
2023-03-14T23:35:05.126Z,100762.34
2023-03-14T23:37:33.688Z,100760.59
2023-03-14T23:40:01.560Z,100759.81
2023-03-14T23:42:29.328Z,100766.28
2023-03-14T23:44:57.200Z,100763.66
2023-03-14T23:47:25.031Z,100768.22
2023-03-14T23:49:54.181Z,100775.50
2023-03-14T23:52:22.198Z,100775.59
2023-03-14T23:54:50.063Z,100785.59
2023-03-14T23:57:17.909Z,100788.44
2023-03-14T23:59:45.785Z,100791.03
